Time;durP1;ratioP1;P1;durP2;ratioP2;P2;SDS_P1;SDS_P2;PMS_P1;PMS_P2;Temp;Humidity;BMP_temperature;BMP_pressure;BME280_temperature;BME280_humidity;BME280_pressure;Samples;Min_cycle;Max_cycle;Signal;HPM_P1;HPM_P2
2022/11/17 05:01:43;;;;;;;2.85;2.50;;;5.10;99.90;;;;;;6072737;23;20212;-68
2022/11/17 05:04:11;;;;;;;1.70;1.70;;;5.10;99.90;;;;;;6090929;23;20181;-68
2022/11/17 05:06:40;;;;;;;1.75;1.50;;;5.10;99.90;;;;;;6093158;23;20192;-68
2022/11/17 05:09:08;;;;;;;4.65;2.72;;;5.10;99.90;;;;;;6093054;23;20192;-68
2022/11/17 05:14:21;;;;;;;4.10;4.00;;;5.10;99.90;;;;;;6102400;23;20211;-68
2022/11/17 05:17:08;;;;;;;2.03;1.58;;;5.00;99.90;;;;;;6093109;23;20181;-68
2022/11/17 05:19:37;;;;;;;2.05;1.90;;;5.00;99.90;;;;;;6093437;23;20189;-68
2022/11/17 05:23:52;;;;;;;2.30;2.10;;;5.00;99.90;;;;;;6094013;23;20202;-69
2022/11/17 05:24:52;;;;;;;2.83;2.83;;;5.00;99.90;;;;;;6090674;23;20291;-69
2022/11/17 05:27:19;;;;;;;1.75;0.77;;;5.00;99.90;;;;;;6094351;23;20177;-68
2022/11/17 05:29:45;;;;;;;3.40;3.10;;;5.00;99.90;;;;;;6092773;23;20204;-69
2022/11/17 05:32:13;;;;;;;2.03;1.92;;;5.00;99.90;;;;;;6092830;23;20216;-69
2022/11/17 05:34:40;;;;;;;5.63;4.03;;;5.00;99.90;;;;;;6092416;23;20533;-68
2022/11/17 05:37:07;;;;;;;4.43;2.85;;;5.00;99.90;;;;;;6093029;23;20560;-68
2022/11/17 05:39:34;;;;;;;2.95;2.80;;;5.00;99.90;;;;;;6091948;23;20208;-69
2022/11/17 05:42:01;;;;;;;1.88;1.88;;;5.00;99.90;;;;;;6091784;23;20209;-68
2022/11/17 05:44:27;;;;;;;5.45;4.13;;;5.00;99.90;;;;;;6092553;23;20185;-68
2022/11/17 05:46:54;;;;;;;1.67;1.65;;;5.00;99.90;;;;;;6092053;23;20188;-69
2022/11/17 05:49:22;;;;;;;3.15;3.05;;;4.90;99.90;;;;;;6093292;23;20181;-68
2022/11/17 05:51:49;;;;;;;2.38;2.28;;;4.90;99.90;;;;;;6092005;23;20585;-69
2022/11/17 05:54:16;;;;;;;4.05;3.85;;;4.90;99.90;;;;;;6092677;23;20181;-69
2022/11/17 05:56:46;;;;;;;2.85;1.98;;;5.00;99.90;;;;;;6092872;23;20192;-69
2022/11/17 05:59:20;;;;;;;3.25;3.05;;;5.00;99.90;;;;;;6089147;23;20589;-69
2022/11/17 06:01:52;;;;;;;1.55;1.55;;;4.90;99.90;;;;;;6090188;23;20238;-68
2022/11/17 06:04:20;;;;;;;2.55;2.40;;;4.90;99.90;;;;;;6092284;23;20574;-69
2022/11/17 06:06:48;;;;;;;3.53;2.22;;;4.90;99.90;;;;;;6093095;23;20188;-68
2022/11/17 06:09:15;;;;;;;1.60;1.58;;;4.90;99.90;;;;;;6092915;23;20189;-69
2022/11/17 06:11:42;;;;;;;6.53;2.95;;;4.90;99.90;;;;;;6091788;23;20208;-68
2022/11/17 06:14:09;;;;;;;1.38;1.38;;;4.90;99.90;;;;;;6092721;23;20184;-68
2022/11/17 06:16:42;;;;;;;1.55;1.50;;;4.90;99.90;;;;;;6093360;23;20189;-68
2022/11/17 06:19:12;;;;;;;2.38;2.00;;;4.90;99.90;;;;;;6094584;23;20522;-68
2022/11/17 06:21:39;;;;;;;2.67;2.47;;;4.90;99.90;;;;;;6094393;23;20200;-69
2022/11/17 06:24:09;;;;;;;2.85;2.58;;;4.90;99.90;;;;;;6094561;23;20252;-68
2022/11/17 06:26:36;;;;;;;3.00;1.80;;;4.90;99.90;;;;;;6093447;23;20567;-69
2022/11/17 06:29:04;;;;;;;5.05;4.65;;;4.90;99.90;;;;;;6093456;23;20200;-69
2022/11/17 06:31:32;;;;;;;1.23;1.23;;;4.90;99.90;;;;;;6094090;23;20659;-69
2022/11/17 06:34:01;;;;;;;1.67;1.67;;;4.90;99.90;;;;;;6094716;23;20189;-68
2022/11/17 06:36:28;;;;;;;6.57;3.30;;;4.90;99.90;;;;;;6094697;23;20662;-70
2022/11/17 06:38:54;;;;;;;2.47;2.05;;;4.90;99.90;;;;;;6093593;23;20188;-69
2022/11/17 06:41:22;;;;;;;2.17;2.08;;;4.90;99.90;;;;;;6093296;23;20477;-69
2022/11/17 06:43:49;;;;;;;4.85;3.45;;;5.00;99.90;;;;;;6092754;23;20181;-69
2022/11/17 06:46:16;;;;;;;3.63;2.58;;;4.90;99.90;;;;;;6094500;23;20181;-69
2022/11/17 06:48:43;;;;;;;4.90;2.60;;;4.90;99.90;;;;;;6094735;23;20184;-69
2022/11/17 06:51:09;;;;;;;2.45;2.22;;;4.90;99.90;;;;;;6095200;23;20208;-69
2022/11/17 06:53:36;;;;;;;1.60;1.40;;;4.90;99.90;;;;;;6094713;23;20181;-69
2022/11/17 06:56:05;;;;;;;2.60;2.17;;;4.90;99.90;;;;;;6093901;23;20511;-68
2022/11/17 06:58:34;;;;;;;2.40;2.30;;;4.90;99.90;;;;;;6094028;23;20189;-69
2022/11/17 07:01:02;;;;;;;3.40;1.48;;;4.90;99.90;;;;;;6092748;23;20204;-69
2022/11/17 07:03:29;;;;;;;2.47;2.28;;;4.80;99.90;;;;;;6092843;23;20242;-69
2022/11/17 07:05:58;;;;;;;1.15;1.15;;;4.90;99.90;;;;;;6094026;23;20184;-70
2022/11/17 07:08:25;;;;;;;3.72;3.42;;;4.90;99.90;;;;;;6094992;23;20207;-70
2022/11/17 07:10:53;;;;;;;2.50;2.40;;;4.90;99.90;;;;;;6092217;23;20209;-69
2022/11/17 07:13:20;;;;;;;0.95;0.95;;;4.90;99.90;;;;;;6094380;23;20268;-69
2022/11/17 07:15:49;;;;;;;7.20;5.25;;;4.90;99.90;;;;;;6093033;23;20189;-69
2022/11/17 07:18:17;;;;;;;17.98;4.30;;;4.90;99.90;;;;;;6094266;23;20184;-69
2022/11/17 07:20:44;;;;;;;1.13;1.10;;;4.90;99.90;;;;;;6094056;23;20523;-69
2022/11/17 07:23:10;;;;;;;3.45;3.15;;;4.90;99.90;;;;;;6092595;23;20181;-69
2022/11/17 07:25:37;;;;;;;4.03;2.97;;;4.90;99.90;;;;;;6091659;23;20547;-69
2022/11/17 07:28:04;;;;;;;1.92;1.83;;;4.90;99.90;;;;;;6094538;23;20212;-69
2022/11/17 07:30:31;;;;;;;2.75;2.50;;;4.90;99.90;;;;;;6092417;23;20213;-70
2022/11/17 07:33:00;;;;;;;5.72;2.92;;;4.90;99.90;;;;;;6092046;23;20186;-69
2022/11/17 07:35:27;;;;;;;2.08;1.92;;;4.90;99.90;;;;;;6093304;23;20200;-69
2022/11/17 07:37:57;;;;;;;3.78;3.45;;;4.90;99.90;;;;;;6093910;23;20182;-69
2022/11/17 07:40:24;;;;;;;2.03;1.92;;;4.90;99.90;;;;;;6092862;23;20169;-69
2022/11/17 07:42:51;;;;;;;2.67;2.47;;;4.90;99.90;;;;;;6091687;23;20186;-69
2022/11/17 07:45:17;;;;;;;4.03;3.47;;;4.90;99.90;;;;;;6092724;23;20188;-69
2022/11/17 07:47:44;;;;;;;2.85;2.75;;;4.90;99.90;;;;;;6094029;23;20268;-69
2022/11/17 07:50:12;;;;;;;4.30;2.53;;;4.90;99.90;;;;;;6094188;23;20189;-69
2022/11/17 07:52:39;;;;;;;1.70;1.67;;;4.90;99.90;;;;;;6093292;23;20205;-69
2022/11/17 07:55:07;;;;;;;5.90;5.40;;;4.90;99.90;;;;;;6093694;23;20191;-69
2022/11/17 07:57:34;;;;;;;2.60;2.40;;;4.90;99.90;;;;;;6092427;23;20201;-69
2022/11/17 08:00:04;;;;;;;1.98;1.98;;;4.90;99.90;;;;;;6093389;23;20560;-69
2022/11/17 08:02:33;;;;;;;2.67;1.55;;;4.90;99.90;;;;;;6091171;23;20310;-69
2022/11/17 08:04:59;;;;;;;5.88;2.90;;;5.00;99.90;;;;;;6092806;23;20670;-69
2022/11/17 08:07:27;;;;;;;4.90;4.70;;;4.90;99.90;;;;;;6094262;23;20199;-69
2022/11/17 08:09:54;;;;;;;1.42;1.33;;;4.90;99.90;;;;;;6092803;23;20192;-69
2022/11/17 08:12:21;;;;;;;5.00;4.70;;;4.90;99.90;;;;;;6093221;23;20201;-69
2022/11/17 08:14:48;;;;;;;2.47;2.25;;;5.00;99.90;;;;;;6091996;23;20180;-69
2022/11/17 08:17:16;;;;;;;4.28;4.03;;;5.00;99.90;;;;;;6092474;23;20236;-68
2022/11/17 08:19:43;;;;;;;5.68;5.13;;;5.00;99.90;;;;;;6092536;23;20196;-69
2022/11/17 08:22:09;;;;;;;5.60;2.95;;;5.00;99.90;;;;;;6092862;23;20205;-68
2022/11/17 08:24:37;;;;;;;7.10;3.20;;;5.00;99.90;;;;;;6090958;23;20483;-69
2022/11/17 08:27:04;;;;;;;4.72;3.08;;;5.00;99.90;;;;;;6092836;23;20204;-69
2022/11/17 08:29:31;;;;;;;7.43;4.07;;;5.00;99.90;;;;;;6091533;23;20204;-69
2022/11/17 08:31:58;;;;;;;1.98;1.90;;;5.00;99.90;;;;;;6102955;23;20220;-69
2022/11/17 08:34:24;;;;;;;1.17;1.08;;;5.00;99.90;;;;;;6092279;23;20652;-69
2022/11/17 08:36:51;;;;;;;2.25;2.25;;;5.00;99.90;;;;;;6093058;23;20180;-69
2022/11/17 08:39:18;;;;;;;3.88;3.53;;;5.10;99.90;;;;;;6092806;23;20643;-69
2022/11/17 08:41:46;;;;;;;4.38;3.25;;;5.10;99.90;;;;;;6092977;23;20201;-69
2022/11/17 08:44:12;;;;;;;7.97;2.53;;;5.10;99.90;;;;;;6092650;23;20196;-69
2022/11/17 08:46:39;;;;;;;3.50;3.30;;;5.10;99.90;;;;;;6092804;23;20185;-69
2022/11/17 08:49:06;;;;;;;1.13;1.13;;;5.10;99.90;;;;;;6093339;23;20493;-69
2022/11/17 08:51:32;;;;;;;2.85;2.10;;;5.10;99.90;;;;;;6093257;23;20205;-70
2022/11/17 08:53:59;;;;;;;1.52;1.50;;;5.10;99.90;;;;;;6092273;23;20492;-70
2022/11/17 08:56:26;;;;;;;2.08;1.98;;;5.10;99.90;;;;;;6091817;23;20285;-69
2022/11/17 08:58:54;;;;;;;5.90;3.63;;;5.20;99.90;;;;;;6093935;23;20490;-69
2022/11/17 09:01:20;;;;;;;2.55;2.45;;;5.20;99.90;;;;;;6093335;23;20209;-70
2022/11/17 09:03:48;;;;;;;3.70;3.40;;;5.20;99.90;;;;;;6092949;23;20656;-70
2022/11/17 09:06:16;;;;;;;4.00;3.10;;;5.20;99.90;;;;;;6092923;23;20185;-70
2022/11/17 09:08:43;;;;;;;4.38;2.58;;;5.20;99.90;;;;;;6094161;23;20181;-70
2022/11/17 09:11:11;;;;;;;4.88;3.88;;;5.20;99.90;;;;;;6092971;23;20205;-71
2022/11/17 09:13:39;;;;;;;2.78;0.90;;;5.30;99.90;;;;;;6090418;23;20185;-70
2022/11/17 09:16:09;;;;;;;4.55;2.97;;;5.30;99.90;;;;;;6091906;23;20359;-71
2022/11/17 09:18:37;;;;;;;2.50;2.40;;;5.20;99.90;;;;;;6093975;23;20221;-71
2022/11/17 09:21:07;;;;;;;2.90;2.65;;;5.20;99.90;;;;;;6092273;23;20209;-70
2022/11/17 09:23:35;;;;;;;2.47;2.33;;;5.30;99.90;;;;;;6092853;23;20485;-70
2022/11/17 09:26:05;;;;;;;2.20;2.20;;;5.30;99.90;;;;;;6103222;23;20174;-70
2022/11/17 09:28:32;;;;;;;0.98;0.98;;;5.30;99.90;;;;;;6094627;23;20189;-71
2022/11/17 09:30:59;;;;;;;4.20;3.90;;;5.30;99.90;;;;;;6093804;23;20664;-71
2022/11/17 09:33:27;;;;;;;7.13;4.97;;;5.30;99.90;;;;;;6091335;23;20273;-71
2022/11/17 09:35:57;;;;;;;7.22;3.55;;;5.40;99.90;;;;;;6102004;23;20176;-71
2022/11/17 09:38:24;;;;;;;3.72;3.50;;;5.40;99.90;;;;;;6103422;23;20220;-71
2022/11/17 09:40:53;;;;;;;2.22;2.13;;;5.40;99.90;;;;;;6103540;23;20284;-71
2022/11/17 09:43:26;;;;;;;2.55;2.30;;;5.40;99.90;;;;;;6100412;23;20218;-70
2022/11/17 09:45:57;;;;;;;3.63;3.15;;;5.40;99.90;;;;;;6096283;23;20464;-70
2022/11/17 09:48:36;;;;;;;2.42;2.30;;;5.40;99.90;;;;;;6092795;23;20173;-70
2022/11/17 09:51:06;;;;;;;0.95;0.95;;;5.40;99.90;;;;;;6094281;23;20208;-71
2022/11/17 09:53:43;;;;;;;2.83;2.50;;;5.40;99.90;;;;;;6094410;23;20443;-71
2022/11/17 09:56:11;;;;;;;2.03;1.92;;;5.50;99.90;;;;;;6092689;23;20173;-71
2022/11/17 09:58:44;;;;;;;4.35;3.88;;;5.40;99.90;;;;;;6094486;23;20554;-71
2022/11/17 10:01:12;;;;;;;3.25;3.05;;;5.50;99.90;;;;;;6101595;23;20211;-71
2022/11/17 10:03:41;;;;;;;1.50;1.50;;;5.40;99.90;;;;;;6092122;23;20226;-71
2022/11/17 10:06:13;;;;;;;3.22;2.97;;;5.50;99.90;;;;;;6093674;23;20191;-71
2022/11/17 10:08:45;;;;;;;0.65;0.65;;;5.50;99.90;;;;;;6093961;23;20170;-70
2022/11/17 10:13:56;;;;;;;3.30;3.08;;;5.50;99.90;;;;;;6090042;23;20221;-71
2022/11/17 10:16:23;;;;;;;3.17;2.97;;;5.50;99.90;;;;;;6094189;23;20185;-71
2022/11/17 10:18:51;;;;;;;3.92;3.72;;;5.40;99.90;;;;;;6094110;23;20181;-71
2022/11/17 10:21:18;;;;;;;3.05;1.92;;;5.40;99.90;;;;;;6092265;23;20289;-70
2022/11/17 10:23:54;;;;;;;3.20;3.05;;;5.40;99.90;;;;;;6092972;23;20189;-71
2022/11/17 10:26:21;;;;;;;0.75;0.75;;;5.40;99.90;;;;;;6094246;23;20180;-70
2022/11/17 10:28:48;;;;;;;2.83;2.63;;;5.40;99.90;;;;;;6095347;23;20181;-71
2022/11/17 10:31:16;;;;;;;3.90;3.65;;;5.40;99.90;;;;;;6093237;23;20206;-70
2022/11/17 10:33:46;;;;;;;3.15;2.95;;;5.40;99.90;;;;;;6093266;23;20181;-70
2022/11/17 10:36:19;;;;;;;1.65;1.52;;;5.30;99.90;;;;;;6094931;23;20255;-70
2022/11/17 10:38:49;;;;;;;3.90;3.60;;;5.30;99.90;;;;;;6094046;23;20166;-70
2022/11/17 10:41:18;;;;;;;1.98;1.95;;;5.30;99.90;;;;;;6093982;23;20201;-70
2022/11/17 10:43:58;;;;;;;7.90;4.20;;;5.10;99.90;;;;;;6094334;23;20280;-70
2022/11/17 10:46:25;;;;;;;2.88;2.38;;;5.00;99.90;;;;;;6094253;23;20173;-70
2022/11/17 10:48:56;;;;;;;1.75;1.25;;;5.00;99.90;;;;;;6095452;23;20707;-70
2022/11/17 10:51:26;;;;;;;1.02;1.02;;;4.90;99.90;;;;;;6095518;23;20205;-69
2022/11/17 10:54:05;;;;;;;3.03;1.52;;;5.00;99.90;;;;;;6096157;23;20189;-69
2022/11/17 10:56:34;;;;;;;7.07;4.40;;;4.90;99.90;;;;;;6100369;23;20263;-70
2022/11/17 10:59:15;;;;;;;2.13;2.03;;;4.90;99.90;;;;;;6097175;23;20180;-70
2022/11/17 11:01:43;;;;;;;2.78;2.58;;;5.00;99.90;;;;;;6093618;23;20211;-70
2022/11/17 11:04:33;;;;;;;1.83;1.83;;;5.10;99.90;;;;;;6092761;23;20203;-69
2022/11/17 11:07:09;;;;;;;0.98;0.93;;;5.10;99.90;;;;;;6094035;23;20165;-70
2022/11/17 11:09:40;;;;;;;2.15;2.05;;;5.10;99.90;;;;;;6093994;23;20532;-70
2022/11/17 11:12:14;;;;;;;3.13;3.00;;;5.10;99.90;;;;;;6094066;23;20484;-69
2022/11/17 11:14:47;;;;;;;1.90;1.88;;;5.10;99.90;;;;;;6091491;23;20180;-70
2022/11/17 11:17:16;;;;;;;2.97;2.80;;;5.00;99.90;;;;;;6092411;23;20173;-70
2022/11/17 11:19:48;;;;;;;6.80;4.32;;;5.00;99.90;;;;;;6092356;23;20189;-71
2022/11/17 11:22:31;;;;;;;2.90;1.48;;;5.00;99.90;;;;;;6091164;23;20205;-70
2022/11/17 11:25:05;;;;;;;1.20;1.10;;;4.90;99.90;;;;;;6094383;23;20212;-70
2022/11/17 11:27:46;;;;;;;3.42;3.22;;;4.80;99.90;;;;;;6093106;23;20169;-69
2022/11/17 11:30:16;;;;;;;1.65;1.40;;;4.80;99.90;;;;;;6092727;23;20180;-69
2022/11/17 11:32:55;;;;;;;2.92;2.70;;;4.80;99.90;;;;;;6093842;23;20189;-70
2022/11/17 11:35:45;;;;;;;3.95;3.55;;;4.80;99.90;;;;;;6094380;23;20208;-70
2022/11/17 11:38:28;;;;;;;1.92;1.77;;;4.80;99.90;;;;;;6094028;23;20250;-70
2022/11/17 11:41:09;;;;;;;4.60;4.18;;;4.80;99.90;;;;;;6093814;23;20638;-70
2022/11/17 11:43:47;;;;;;;1.90;1.90;;;4.80;99.90;;;;;;6093498;23;20572;-70
2022/11/17 11:46:18;;;;;;;2.88;2.70;;;4.80;99.90;;;;;;6093513;23;20173;-70
2022/11/17 11:48:47;;;;;;;1.92;1.83;;;4.80;99.90;;;;;;6094413;23;20224;-71
2022/11/17 11:51:17;;;;;;;3.10;2.85;;;4.80;99.90;;;;;;6093928;23;20188;-70
2022/11/17 11:53:51;;;;;;;2.30;2.20;;;4.80;99.90;;;;;;6094095;23;20197;-70
2022/11/17 11:56:22;;;;;;;3.67;2.03;;;4.80;99.90;;;;;;6093621;23;20487;-70
2022/11/17 11:58:57;;;;;;;2.67;2.15;;;4.80;99.90;;;;;;6094583;23;20263;-71
2022/11/17 12:01:25;;;;;;;2.00;1.88;;;4.80;99.90;;;;;;6096918;23;20165;-70
2022/11/17 12:04:01;;;;;;;6.60;6.15;;;4.80;99.90;;;;;;6095647;23;20204;-70
2022/11/17 12:06:41;;;;;;;2.33;2.28;;;4.80;99.90;;;;;;6097856;23;20165;-70
2022/11/17 12:09:32;;;;;;;3.65;2.53;;;4.80;99.90;;;;;;6103069;23;20172;-70
2022/11/17 12:12:00;;;;;;;3.55;2.75;;;4.80;99.90;;;;;;6102116;23;20188;-71
2022/11/17 12:14:28;;;;;;;3.00;2.80;;;4.80;99.90;;;;;;6100705;23;20202;-70
2022/11/17 12:17:03;;;;;;;4.35;3.42;;;4.80;99.90;;;;;;6095861;23;20185;-70
2022/11/17 12:19:51;;;;;;;6.80;3.10;;;4.80;99.90;;;;;;6097273;23;20196;-70
2022/11/17 12:22:52;;;;;;;3.15;2.92;;;4.80;99.90;;;;;;6095824;23;20191;-70
2022/11/17 12:25:25;;;;;;;4.68;3.47;;;4.90;99.90;;;;;;6094271;23;20224;-70
2022/11/17 12:27:52;;;;;;;3.83;3.63;;;4.90;99.90;;;;;;6095837;23;20255;-71
2022/11/17 12:30:54;;;;;;;3.78;3.58;;;4.90;99.90;;;;;;6096184;23;20189;-71
2022/11/17 12:33:22;;;;;;;2.42;1.58;;;4.90;99.90;;;;;;6093934;23;20212;-71
2022/11/17 12:36:25;;;;;;;1.00;0.98;;;4.90;99.90;;;;;;6094777;23;20618;-71
2022/11/17 12:38:53;;;;;;;2.60;2.50;;;4.90;99.90;;;;;;6094544;23;20555;-70
2022/11/17 12:41:53;;;;;;;3.90;3.60;;;4.90;99.90;;;;;;6093018;23;20264;-71
2022/11/17 12:45:12;;;;;;;4.25;2.13;;;5.00;99.90;;;;;;6092687;23;20201;-71
2022/11/17 12:47:43;;;;;;;3.63;2.53;;;5.00;99.90;;;;;;6094564;23;20169;-70
2022/11/17 12:50:38;;;;;;;3.47;2.08;;;5.00;99.90;;;;;;6094772;23;20169;-70
2022/11/17 12:53:19;;;;;;;4.03;3.25;;;4.90;99.90;;;;;;6095642;23;20212;-71
2022/11/17 12:56:22;;;;;;;1.42;1.42;;;4.90;99.90;;;;;;6095122;23;20200;-70
2022/11/17 12:59:02;;;;;;;3.33;2.60;;;4.90;99.90;;;;;;6028308;23;20180;-70
2022/11/17 13:01:40;;;;;;;1.65;1.55;;;4.90;99.90;;;;;;6095273;23;20173;-70
2022/11/17 13:04:12;;;;;;;3.60;2.45;;;4.90;99.90;;;;;;6094707;23;20200;-71
2022/11/17 13:06:57;;;;;;;4.63;3.00;;;4.90;99.90;;;;;;6093764;23;20510;-70
2022/11/17 13:09:26;;;;;;;3.60;3.40;;;4.90;99.90;;;;;;6094097;23;20165;-70
2022/11/17 13:11:58;;;;;;;5.75;4.72;;;4.90;99.90;;;;;;6093364;23;20842;-70
2022/11/17 13:14:25;;;;;;;2.58;2.47;;;4.80;99.90;;;;;;6092185;23;20207;-70
2022/11/17 13:16:52;;;;;;;3.50;1.58;;;4.80;99.90;;;;;;6093586;23;20247;-71
2022/11/17 13:19:32;;;;;;;2.30;1.95;;;4.80;99.90;;;;;;6092786;23;20192;-70
2022/11/17 13:22:01;;;;;;;5.53;5.13;;;4.80;99.90;;;;;;6094938;23;20494;-70
2022/11/17 13:24:32;;;;;;;4.35;1.77;;;4.70;99.90;;;;;;6094770;23;20223;-69
2022/11/17 13:27:00;;;;;;;0.77;0.77;;;4.70;99.90;;;;;;6094672;23;20184;-67
2022/11/17 13:29:27;;;;;;;3.88;2.72;;;4.70;99.90;;;;;;6095803;23;20181;-67
2022/11/17 13:32:12;;;;;;;4.07;3.72;;;4.70;99.90;;;;;;6094777;23;20184;-69
2022/11/17 13:34:51;;;;;;;2.97;2.78;;;4.80;99.90;;;;;;6092571;23;20225;-67
2022/11/17 13:37:20;;;;;;;5.25;4.72;;;4.80;99.90;;;;;;6095687;23;20175;-68
2022/11/17 13:39:55;;;;;;;3.38;3.10;;;4.80;99.90;;;;;;6094783;23;20242;-67
2022/11/17 13:42:24;;;;;;;2.95;2.85;;;4.80;99.90;;;;;;6095126;23;20536;-67
2022/11/17 13:44:53;;;;;;;5.47;5.05;;;4.80;99.90;;;;;;6093936;23;20208;-67
2022/11/17 13:47:20;;;;;;;3.50;2.67;;;4.80;99.90;;;;;;6096040;23;20189;-67
2022/11/17 13:49:48;;;;;;;6.70;3.70;;;4.80;99.90;;;;;;6095211;23;20279;-67
2022/11/17 13:52:31;;;;;;;5.88;3.50;;;4.80;99.90;;;;;;6094517;23;20640;-66
2022/11/17 13:54:58;;;;;;;3.90;2.72;;;4.80;99.90;;;;;;6094673;23;20209;-67
2022/11/17 13:57:27;;;;;;;1.90;1.63;;;4.80;99.90;;;;;;6095008;23;20197;-68
2022/11/17 13:59:54;;;;;;;7.07;4.43;;;4.70;99.90;;;;;;6094007;23;20746;-68
2022/11/17 14:02:28;;;;;;;4.43;2.70;;;4.70;99.90;;;;;;6095293;23;20181;-69
2022/11/17 14:05:21;;;;;;;3.80;2.35;;;4.70;99.90;;;;;;6094673;23;20205;-70
2022/11/17 14:07:49;;;;;;;5.53;5.00;;;4.70;99.90;;;;;;6096792;23;20165;-72
2022/11/17 14:10:28;;;;;;;6.22;5.35;;;4.70;99.90;;;;;;6094945;23;20287;-71
2022/11/17 14:13:22;;;;;;;5.90;5.60;;;4.70;99.90;;;;;;6094553;23;20284;-71
2022/11/17 14:15:57;;;;;;;5.20;4.00;;;4.70;99.90;;;;;;6095055;23;20232;-71
2022/11/17 14:18:30;;;;;;;2.65;2.55;;;4.70;99.90;;;;;;6095306;23;20184;-72
2022/11/17 14:21:13;;;;;;;6.95;4.10;;;4.70;99.90;;;;;;6095549;23;20188;-71
2022/11/17 14:23:41;;;;;;;3.70;2.75;;;4.60;99.90;;;;;;6095098;23;20172;-71
2022/11/17 14:26:18;;;;;;;3.38;2.63;;;4.60;99.90;;;;;;6094272;23;20239;-71
2022/11/17 14:28:44;;;;;;;3.65;3.55;;;4.60;99.90;;;;;;6095518;23;20169;-72
2022/11/17 14:31:12;;;;;;;2.75;2.55;;;4.60;99.90;;;;;;6095455;23;20189;-71
2022/11/17 14:33:39;;;;;;;2.97;2.95;;;4.60;99.90;;;;;;6096050;23;20839;-73
2022/11/17 14:36:10;;;;;;;3.33;3.17;;;4.70;99.90;;;;;;6098749;23;20205;-71
2022/11/17 14:38:36;;;;;;;4.22;3.20;;;4.70;99.90;;;;;;6096674;23;20184;-72
2022/11/17 14:41:03;;;;;;;7.53;3.95;;;4.60;99.90;;;;;;6095394;23;20193;-71
2022/11/17 14:43:31;;;;;;;7.53;6.75;;;4.70;99.90;;;;;;6094231;23;20483;-71
2022/11/17 14:45:58;;;;;;;2.35;2.35;;;4.70;99.90;;;;;;6093287;23;20212;-71
2022/11/17 14:48:25;;;;;;;5.03;4.70;;;4.70;99.90;;;;;;6093602;23;20268;-72
2022/11/17 14:50:56;;;;;;;4.47;3.78;;;4.70;99.90;;;;;;6095453;23;20605;-71
2022/11/17 14:53:24;;;;;;;3.42;3.13;;;4.60;99.90;;;;;;6093827;23;20299;-71
2022/11/17 14:55:51;;;;;;;7.60;3.00;;;4.60;99.90;;;;;;6094093;23;20201;-71
2022/11/17 14:58:18;;;;;;;1.85;1.38;;;4.60;99.90;;;;;;6093677;23;20180;-71
2022/11/17 15:00:45;;;;;;;2.65;2.53;;;4.60;99.90;;;;;;6093355;23;20477;-71
2022/11/17 15:03:12;;;;;;;2.28;2.17;;;4.60;99.90;;;;;;6093345;23;20188;-72
2022/11/17 15:05:44;;;;;;;6.82;2.38;;;4.60;99.90;;;;;;6094626;23;20202;-71
2022/11/17 15:08:11;;;;;;;1.63;1.58;;;4.60;99.90;;;;;;6093712;23;20225;-71
2022/11/17 15:10:42;;;;;;;2.45;1.98;;;4.60;99.90;;;;;;6094861;23;20208;-71
2022/11/17 15:13:09;;;;;;;0.73;0.73;;;4.60;99.90;;;;;;6094373;23;20186;-71
2022/11/17 15:15:36;;;;;;;3.90;3.78;;;4.60;99.90;;;;;;6093154;23;20213;-71
2022/11/17 15:18:02;;;;;;;1.38;1.38;;;4.60;99.90;;;;;;6094634;23;20201;-71
2022/11/17 15:20:29;;;;;;;2.97;2.78;;;4.60;99.90;;;;;;6094826;23;20207;-71
2022/11/17 15:22:56;;;;;;;1.35;1.35;;;4.60;99.90;;;;;;6093676;23;20753;-71
2022/11/17 15:25:23;;;;;;;6.47;5.53;;;4.60;99.90;;;;;;6093290;23;20213;-70
2022/11/17 15:27:52;;;;;;;2.40;2.20;;;4.60;99.90;;;;;;6094190;23;20196;-72
2022/11/17 15:30:19;;;;;;;1.35;1.25;;;4.60;99.90;;;;;;6097097;23;20570;-70
2022/11/17 15:32:46;;;;;;;1.05;1.05;;;4.60;99.90;;;;;;6095698;23;20216;-71
2022/11/17 15:35:13;;;;;;;3.67;2.97;;;4.60;99.90;;;;;;6096550;23;20205;-70
2022/11/17 15:37:40;;;;;;;4.15;3.70;;;4.50;99.90;;;;;;6097289;23;20620;-72
2022/11/17 15:40:07;;;;;;;0.90;0.90;;;4.60;99.90;;;;;;6095195;23;20180;-70
2022/11/17 15:42:34;;;;;;;2.00;0.77;;;4.60;99.90;;;;;;6093484;23;20217;-70
2022/11/17 15:45:02;;;;;;;1.98;1.95;;;4.60;99.90;;;;;;6093979;23;20559;-70
2022/11/17 15:47:29;;;;;;;3.70;1.38;;;4.60;99.90;;;;;;6094473;23;20186;-70
2022/11/17 15:49:57;;;;;;;1.77;1.67;;;4.50;99.90;;;;;;6094228;23;20193;-71
2022/11/17 15:52:23;;;;;;;4.70;4.35;;;4.50;99.90;;;;;;6094059;23;20249;-70
2022/11/17 15:54:50;;;;;;;4.15;1.98;;;4.50;99.90;;;;;;6090769;23;20296;-70
2022/11/17 15:57:17;;;;;;;4.47;4.15;;;4.50;99.90;;;;;;6091441;23;20180;-69
2022/11/17 15:59:43;;;;;;;4.00;2.90;;;4.50;99.90;;;;;;6093135;23;20180;-70
2022/11/17 16:02:13;;;;;;;4.78;2.65;;;4.50;99.90;;;;;;6094663;23;20187;-71
2022/11/17 16:04:40;;;;;;;3.72;2.85;;;4.50;99.90;;;;;;6093115;23;20214;-70
2022/11/17 16:07:07;;;;;;;44.30;3.58;;;4.50;99.90;;;;;;6094389;23;20185;-71
2022/11/17 16:09:34;;;;;;;11.43;3.65;;;4.50;99.90;;;;;;6094792;23;20232;-70
2022/11/17 16:12:01;;;;;;;1.95;1.73;;;4.60;99.90;;;;;;6092295;23;20188;-71
2022/11/17 16:14:28;;;;;;;3.28;3.08;;;4.50;99.90;;;;;;6093703;23;20729;-71
2022/11/17 16:16:54;;;;;;;2.75;2.55;;;4.50;99.90;;;;;;6093145;23;20192;-71
2022/11/17 16:19:22;;;;;;;3.35;3.20;;;4.50;99.90;;;;;;6092461;23;20180;-71
2022/11/17 16:21:50;;;;;;;2.28;2.08;;;4.50;99.90;;;;;;6092917;23;20671;-71
2022/11/17 16:24:16;;;;;;;0.90;0.90;;;4.60;99.90;;;;;;6093222;23;20208;-71
2022/11/17 16:26:44;;;;;;;1.30;1.30;;;4.60;99.90;;;;;;6089951;23;20500;-70
2022/11/17 16:29:11;;;;;;;2.85;1.88;;;4.60;99.90;;;;;;6094397;23;20568;-70
2022/11/17 16:31:39;;;;;;;3.17;2.97;;;4.60;99.90;;;;;;6091595;23;20518;-70
2022/11/17 16:34:10;;;;;;;1.38;1.27;;;4.60;99.90;;;;;;6090396;23;20591;-71
2022/11/17 16:36:40;;;;;;;3.85;3.47;;;4.60;99.90;;;;;;6090735;23;20169;-71
2022/11/17 16:39:08;;;;;;;1.35;0.65;;;4.60;99.90;;;;;;6093664;23;20813;-71
2022/11/17 16:41:37;;;;;;;4.50;3.75;;;4.50;99.90;;;;;;6093067;23;20185;-71
2022/11/17 16:44:08;;;;;;;2.97;2.35;;;4.50;99.90;;;;;;6102821;23;20181;-70
2022/11/17 16:46:35;;;;;;;3.55;3.45;;;4.60;99.90;;;;;;6096141;23;20184;-70
2022/11/17 16:49:04;;;;;;;2.63;1.60;;;4.60;99.90;;;;;;6094350;23;20731;-70
2022/11/17 16:51:31;;;;;;;2.83;2.63;;;4.50;99.90;;;;;;6093620;23;20191;-70
2022/11/17 16:54:01;;;;;;;1.75;1.63;;;4.60;99.90;;;;;;6092906;23;20209;-70
2022/11/17 16:56:28;;;;;;;3.40;3.20;;;4.60;99.90;;;;;;6093577;23;20192;-70
2022/11/17 16:58:55;;;;;;;3.33;1.40;;;4.60;99.90;;;;;;6091356;23;20185;-70
2022/11/17 17:01:23;;;;;;;5.25;2.15;;;4.60;99.90;;;;;;6091747;23;20191;-70
2022/11/17 17:03:54;;;;;;;4.97;3.35;;;4.60;99.90;;;;;;6091984;23;20636;-70
2022/11/17 17:06:21;;;;;;;2.75;2.55;;;4.60;99.90;;;;;;6091736;23;20170;-70
2022/11/17 17:08:47;;;;;;;2.05;2.05;;;4.60;99.90;;;;;;6093829;23;20182;-70
2022/11/17 17:11:16;;;;;;;6.07;4.15;;;4.60;99.90;;;;;;6093106;23;20588;-69
2022/11/17 17:13:43;;;;;;;2.83;2.63;;;4.60;99.90;;;;;;6093972;23;20208;-71
2022/11/17 17:16:11;;;;;;;3.50;3.22;;;4.60;99.90;;;;;;6092588;23;20205;-71
2022/11/17 17:18:39;;;;;;;4.18;3.25;;;4.50;99.90;;;;;;6094955;23;20630;-71
2022/11/17 17:21:07;;;;;;;2.92;2.47;;;4.50;99.90;;;;;;6094324;23;20181;-71
2022/11/17 17:23:34;;;;;;;3.88;3.78;;;4.50;99.90;;;;;;6092557;23;20189;-70
2022/11/17 17:26:02;;;;;;;2.53;2.42;;;4.60;99.90;;;;;;6093250;23;20215;-70
2022/11/17 17:28:31;;;;;;;3.17;2.70;;;4.60;99.90;;;;;;6093914;23;20190;-70
2022/11/17 17:30:58;;;;;;;3.70;2.63;;;4.60;99.90;;;;;;6090807;23;20257;-69
2022/11/17 17:33:25;;;;;;;4.10;3.58;;;4.70;99.90;;;;;;6092660;23;20245;-70
2022/11/17 17:35:52;;;;;;;2.75;1.90;;;4.70;99.90;;;;;;6093872;23;20201;-70
2022/11/17 17:38:19;;;;;;;5.75;3.25;;;4.60;99.90;;;;;;6094398;23;20185;-70
2022/11/17 17:40:45;;;;;;;3.30;3.05;;;4.60;99.90;;;;;;6093820;23;20227;-71
2022/11/17 17:43:12;;;;;;;2.03;1.92;;;4.60;99.90;;;;;;6093053;23;20189;-70
2022/11/17 17:55:47;;;;;;;1.75;1.58;;;4.50;99.90;;;;;;5082386;27;20592;-69
2022/11/17 17:58:13;;;;;;;2.60;2.45;;;4.50;99.90;;;;;;5053699;28;20206;-69
2022/11/17 18:00:40;;;;;;;2.40;2.30;;;4.50;99.90;;;;;;5052316;28;20205;-70
2022/11/17 18:03:07;;;;;;;5.47;2.60;;;4.50;99.90;;;;;;5057629;28;20204;-70
2022/11/17 18:05:34;;;;;;;5.38;4.88;;;4.50;99.90;;;;;;5067438;28;20229;-71
2022/11/17 18:08:00;;;;;;;7.90;5.22;;;4.50;99.90;;;;;;5065877;28;20316;-70
2022/11/17 18:10:27;;;;;;;3.00;1.60;;;4.50;99.90;;;;;;5055855;28;20297;-69
2022/11/17 18:12:55;;;;;;;4.32;2.85;;;4.50;99.90;;;;;;5060214;28;20214;-70
2022/11/17 18:15:22;;;;;;;5.90;3.72;;;4.50;99.90;;;;;;5058843;28;20308;-70
2022/11/17 18:17:48;;;;;;;2.55;2.35;;;4.50;99.90;;;;;;5065074;28;20331;-69
2022/11/17 18:20:16;;;;;;;7.10;4.00;;;4.40;99.90;;;;;;5057908;28;20202;-69
2022/11/17 18:22:42;;;;;;;5.70;3.53;;;4.40;99.90;;;;;;5061558;28;20213;-70
2022/11/17 18:25:09;;;;;;;2.88;1.48;;;4.40;99.90;;;;;;5061520;28;20244;-69
2022/11/17 18:27:36;;;;;;;1.52;1.52;;;4.30;99.90;;;;;;5056180;28;20210;-70
2022/11/17 18:30:05;;;;;;;5.15;2.88;;;4.30;99.90;;;;;;5053442;28;20204;-70